createdAt,value
2019-03-18T00:00:34.783Z,3.30
2019-03-18T00:03:58.118Z,4.00
2019-03-18T00:07:21.697Z,3.37
2019-03-18T00:10:44.923Z,3.57
2019-03-18T00:14:08.334Z,3.53
2019-03-18T00:17:31.462Z,4.03
2019-03-18T00:20:55.594Z,3.33
2019-03-18T00:24:18.824Z,4.30
2019-03-18T00:27:42.212Z,3.63
2019-03-18T00:31:05.284Z,4.03
2019-03-18T00:34:28.513Z,4.00
2019-03-18T00:37:51.755Z,4.33
2019-03-18T00:41:14.903Z,3.90
2019-03-18T00:44:38.039Z,3.43
2019-03-18T00:48:01.196Z,3.97
2019-03-18T00:51:24.389Z,4.20
2019-03-18T00:54:47.476Z,4.63
2019-03-18T00:58:10.912Z,5.13
2019-03-18T01:01:34.141Z,4.93
2019-03-18T01:04:57.551Z,4.93
2019-03-18T01:08:20.646Z,4.90
2019-03-18T01:11:43.823Z,5.17
2019-03-18T01:15:07.049Z,5.50
2019-03-18T01:18:30.228Z,5.30
2019-03-18T01:21:53.442Z,5.20
2019-03-18T01:25:16.814Z,5.63
2019-03-18T01:28:40.009Z,6.57
2019-03-18T01:32:03.150Z,5.23
2019-03-18T01:35:26.305Z,5.47
2019-03-18T01:38:49.540Z,5.57
2019-03-18T01:42:12.879Z,5.03
2019-03-18T01:45:41.064Z,5.37
2019-03-18T01:49:01.239Z,5.57
2019-03-18T01:52:24.393Z,5.43
2019-03-18T01:55:47.516Z,5.43
2019-03-18T01:59:10.715Z,4.97
2019-03-18T02:02:34.160Z,5.40
2019-03-18T02:05:57.260Z,5.00
2019-03-18T02:09:20.419Z,4.90
2019-03-18T02:12:43.502Z,5.10
2019-03-18T02:16:06.622Z,5.00
2019-03-18T02:19:29.918Z,5.10
2019-03-18T02:22:53.153Z,4.60
2019-03-18T02:26:16.314Z,4.90
2019-03-18T02:29:39.699Z,4.47
2019-03-18T02:33:02.798Z,5.17
2019-03-18T02:36:26.371Z,5.20
2019-03-18T02:39:49.554Z,5.03
2019-03-18T02:43:12.851Z,4.90
2019-03-18T02:46:35.972Z,4.50
2019-03-18T02:49:59.124Z,5.20
2019-03-18T02:53:22.226Z,5.17
2019-03-18T02:56:45.337Z,5.10
2019-03-18T03:00:09.756Z,5.37
2019-03-18T03:03:35.354Z,6.40
2019-03-18T03:06:57.845Z,7.17
2019-03-18T03:10:21.886Z,6.90
2019-03-18T03:13:45.005Z,8.00
2019-03-18T03:17:08.122Z,8.07
2019-03-18T03:20:31.506Z,8.33
2019-03-18T03:23:54.912Z,8.97
2019-03-18T03:27:18.411Z,10.17
2019-03-18T03:30:41.489Z,11.47
2019-03-18T03:34:04.588Z,10.50
2019-03-18T03:37:27.708Z,10.17
2019-03-18T03:40:51.171Z,9.57
2019-03-18T03:44:14.232Z,10.07
2019-03-18T03:47:37.378Z,10.47
2019-03-18T03:51:00.570Z,8.07
2019-03-18T03:54:23.653Z,9.77
2019-03-18T03:57:46.848Z,10.37
2019-03-18T04:01:09.885Z,11.87
2019-03-18T04:04:32.975Z,12.30
2019-03-18T04:07:56.037Z,12.30
2019-03-18T04:11:19.225Z,13.33
2019-03-18T04:14:42.546Z,12.50
2019-03-18T04:18:05.734Z,12.63
2019-03-18T04:21:28.825Z,14.57
2019-03-18T04:24:53.090Z,15.13
2019-03-18T04:28:16.324Z,13.23
2019-03-18T04:31:39.464Z,14.07
2019-03-18T04:35:02.925Z,14.17
2019-03-18T04:38:26.027Z,12.53
2019-03-18T04:41:49.103Z,14.33
2019-03-18T04:45:12.515Z,14.50
2019-03-18T04:48:35.681Z,16.80
2019-03-18T04:51:59.092Z,16.70
2019-03-18T04:55:22.219Z,16.70
2019-03-18T04:58:45.320Z,17.73
2019-03-18T05:02:08.415Z,18.03
2019-03-18T05:05:31.462Z,19.50
2019-03-18T05:08:54.735Z,20.03
2019-03-18T05:12:20.921Z,21.67
2019-03-18T05:15:44.032Z,20.67
2019-03-18T05:19:08.232Z,21.47
2019-03-18T05:22:31.458Z,22.50
2019-03-18T05:25:54.824Z,24.23
2019-03-18T05:29:17.943Z,23.90
2019-03-18T05:32:41.125Z,21.20
2019-03-18T05:36:04.227Z,21.97
2019-03-18T05:39:27.587Z,20.63
2019-03-18T05:42:50.975Z,20.70
2019-03-18T05:46:14.214Z,20.20
2019-03-18T05:49:37.424Z,19.33
2019-03-18T05:53:00.498Z,17.77
2019-03-18T05:56:23.607Z,18.83
2019-03-18T05:59:46.815Z,18.80
2019-03-18T06:03:10.100Z,18.30
2019-03-18T06:06:33.700Z,19.00
2019-03-18T06:09:57.134Z,18.17
2019-03-18T06:13:20.247Z,15.77
2019-03-18T06:16:43.406Z,17.83
2019-03-18T06:20:06.733Z,18.20
2019-03-18T06:23:29.995Z,19.43
2019-03-18T06:26:53.438Z,18.20
2019-03-18T06:30:16.788Z,20.27
2019-03-18T06:33:40.034Z,21.87
2019-03-18T06:37:03.186Z,21.63
2019-03-18T06:40:26.455Z,22.20
2019-03-18T06:43:49.914Z,22.93
2019-03-18T06:47:13.054Z,21.73
2019-03-18T06:50:36.176Z,21.43
2019-03-18T06:53:59.247Z,19.83
2019-03-18T06:57:22.355Z,21.03
2019-03-18T07:00:45.510Z,21.60
2019-03-18T07:04:09.523Z,22.03
2019-03-18T07:07:32.744Z,19.73
2019-03-18T07:10:56.314Z,18.33
2019-03-18T07:14:20.294Z,21.50
2019-03-18T07:17:43.375Z,22.17
2019-03-18T07:21:06.531Z,22.20
2019-03-18T07:24:29.767Z,21.10
2019-03-18T07:27:52.861Z,22.20
2019-03-18T07:31:16.115Z,23.40
2019-03-18T07:34:39.221Z,22.90
2019-03-18T07:38:48.684Z,23.07
2019-03-18T07:42:13.665Z,21.40
2019-03-18T07:45:36.795Z,19.33
2019-03-18T07:48:59.898Z,19.60
2019-03-18T07:52:23.045Z,19.80
2019-03-18T07:55:46.541Z,20.00
2019-03-18T07:59:10.705Z,17.93
2019-03-18T08:02:33.830Z,17.67
2019-03-18T08:05:57.016Z,15.37
2019-03-18T08:09:20.259Z,14.13
2019-03-18T08:12:43.365Z,14.53
2019-03-18T08:16:06.474Z,13.13
2019-03-18T08:19:29.643Z,11.37
2019-03-18T08:22:52.805Z,10.50
2019-03-18T08:26:15.979Z,10.30
2019-03-18T08:29:39.458Z,8.33
2019-03-18T08:33:02.561Z,6.57
2019-03-18T08:36:25.955Z,6.80
2019-03-18T08:39:49.456Z,7.90
2019-03-18T08:43:12.831Z,9.83
2019-03-18T08:46:36.259Z,10.97
2019-03-18T08:49:59.354Z,16.07
2019-03-18T08:53:22.610Z,16.20
2019-03-18T08:56:47.358Z,14.30
2019-03-18T09:00:11.186Z,11.67
2019-03-18T09:03:34.303Z,10.70
2019-03-18T09:06:57.963Z,9.23
2019-03-18T09:10:21.069Z,8.80
2019-03-18T09:13:44.270Z,9.97
2019-03-18T09:17:07.443Z,7.33
2019-03-18T09:20:30.535Z,7.13
2019-03-18T09:23:53.763Z,6.13
2019-03-18T09:27:16.927Z,6.17
2019-03-18T09:30:40.108Z,5.87
2019-03-18T09:34:03.457Z,7.00
2019-03-18T09:37:26.560Z,5.80
2019-03-18T09:40:50.003Z,6.43
2019-03-18T09:44:13.095Z,5.57
2019-03-18T09:47:36.273Z,5.57
2019-03-18T09:50:59.401Z,5.30
2019-03-18T09:54:22.830Z,4.00
2019-03-18T09:57:46.121Z,4.13
2019-03-18T10:01:09.339Z,4.37
2019-03-18T10:04:33.766Z,4.17
2019-03-18T10:07:56.922Z,4.80
2019-03-18T10:11:20.163Z,5.17
2019-03-18T10:14:43.366Z,5.27
2019-03-18T10:18:06.866Z,3.80
2019-03-18T10:21:30.036Z,2.83
2019-03-18T10:24:53.158Z,3.73
2019-03-18T10:28:16.718Z,4.13
2019-03-18T10:31:40.078Z,3.80
2019-03-18T10:35:04.339Z,4.17
2019-03-18T10:38:27.457Z,3.80
2019-03-18T10:41:50.673Z,4.58
2019-03-18T10:45:14.141Z,4.25
2019-03-18T10:48:38.360Z,4.67
2019-03-18T10:52:01.479Z,5.62
2019-03-18T10:55:24.714Z,4.60
2019-03-18T10:58:47.895Z,4.55
2019-03-18T11:02:11.073Z,5.07
2019-03-18T11:05:34.180Z,5.63
2019-03-18T11:08:57.584Z,3.97
2019-03-18T11:12:20.771Z,4.53
2019-03-18T11:15:43.884Z,5.12
2019-03-18T11:19:07.284Z,4.15
2019-03-18T11:22:30.388Z,5.00
2019-03-18T11:25:53.815Z,4.08
2019-03-18T11:29:17.010Z,3.55
2019-03-18T11:32:40.149Z,3.00
2019-03-18T11:36:03.663Z,3.90
2019-03-18T11:39:26.775Z,3.35
2019-03-18T11:42:49.898Z,4.40
2019-03-18T11:46:13.056Z,2.83
2019-03-18T11:49:39.764Z,2.77
2019-03-18T11:53:13.459Z,3.12
2019-03-18T11:56:26.931Z,2.58
2019-03-18T11:59:50.069Z,2.62
2019-03-18T12:03:13.272Z,3.13
2019-03-18T12:06:36.827Z,3.17
2019-03-18T12:10:00.371Z,2.77
2019-03-18T12:13:23.537Z,2.87
2019-03-18T12:16:47.094Z,3.07
2019-03-18T12:20:23.211Z,2.20
2019-03-18T12:23:35.972Z,3.33
2019-03-18T12:26:59.189Z,2.23
2019-03-18T12:30:22.441Z,2.53
2019-03-18T12:33:45.591Z,2.87
2019-03-18T12:37:08.778Z,3.43
2019-03-18T12:40:32.067Z,2.03
2019-03-18T12:43:55.336Z,2.37
2019-03-18T12:47:18.632Z,2.97
2019-03-18T12:50:55.322Z,1.87
2019-03-18T12:54:07.013Z,2.77
2019-03-18T12:57:30.313Z,2.10
2019-03-18T13:00:53.573Z,3.10
2019-03-18T13:04:16.703Z,2.30
2019-03-18T13:07:39.938Z,2.40
2019-03-18T13:11:03.566Z,2.65
2019-03-18T13:14:26.999Z,4.10
2019-03-18T13:17:50.458Z,3.15
2019-03-18T13:21:13.600Z,3.10
2019-03-18T13:24:36.981Z,2.52
2019-03-18T13:28:00.244Z,2.22
2019-03-18T13:31:23.707Z,2.70
2019-03-18T13:34:46.871Z,2.35
2019-03-18T13:38:10.019Z,2.35
2019-03-18T13:41:33.144Z,2.65
2019-03-18T13:44:56.338Z,2.20
2019-03-18T13:48:19.672Z,2.42
2019-03-18T13:51:43.331Z,2.90
2019-03-18T13:55:07.104Z,2.50
2019-03-18T13:58:30.246Z,1.98
2019-03-18T14:01:54.622Z,2.67
2019-03-18T14:05:17.898Z,2.80
2019-03-18T14:08:41.180Z,2.95
2019-03-18T14:12:04.525Z,2.72
2019-03-18T14:15:27.883Z,2.25
2019-03-18T14:18:51.167Z,3.25
2019-03-18T14:22:14.434Z,3.05
2019-03-18T14:25:37.588Z,2.15
2019-03-18T14:29:00.820Z,2.92
2019-03-18T14:32:25.794Z,3.05
2019-03-18T14:35:48.966Z,2.77
2019-03-18T14:39:12.134Z,3.87
2019-03-18T14:42:35.414Z,2.40
2019-03-18T14:45:58.553Z,2.93
2019-03-18T14:49:21.783Z,3.80
2019-03-18T14:52:45.439Z,3.00
2019-03-18T14:56:08.723Z,2.67
2019-03-18T14:59:31.916Z,3.60
2019-03-18T15:02:55.070Z,2.42
2019-03-18T15:06:18.257Z,2.25
2019-03-18T15:09:41.407Z,2.02
2019-03-18T15:13:07.747Z,2.98
2019-03-18T15:16:31.016Z,2.25
2019-03-18T15:19:54.117Z,2.62
2019-03-18T15:23:17.644Z,2.47
2019-03-18T15:26:40.780Z,2.90
2019-03-18T15:30:06.485Z,3.10
2019-03-18T15:33:29.575Z,4.75
2019-03-18T15:36:55.156Z,2.72
2019-03-18T15:40:18.530Z,2.30
2019-03-18T15:43:42.058Z,3.17
2019-03-18T15:47:05.500Z,2.25
2019-03-18T15:50:28.682Z,2.85
2019-03-18T15:53:52.188Z,2.27
2019-03-18T15:57:15.354Z,2.75
2019-03-18T16:00:38.496Z,3.17
2019-03-18T16:04:01.772Z,3.30
2019-03-18T16:07:24.909Z,3.27
2019-03-18T16:10:48.076Z,3.02
2019-03-18T16:14:11.537Z,3.35
2019-03-18T16:17:34.747Z,2.90
2019-03-18T16:20:57.912Z,2.62
2019-03-18T16:24:21.156Z,3.30
2019-03-18T16:27:44.410Z,3.00
2019-03-18T16:31:07.685Z,3.05
2019-03-18T16:34:30.899Z,3.12
2019-03-18T16:37:54.135Z,3.52
2019-03-18T16:41:17.330Z,2.55
2019-03-18T16:44:40.455Z,3.30
2019-03-18T16:48:04.125Z,3.40
2019-03-18T16:51:27.480Z,2.70
2019-03-18T16:54:50.735Z,2.83
2019-03-18T16:58:14.725Z,2.42
2019-03-18T17:01:38.286Z,2.98
2019-03-18T17:05:01.731Z,2.35
2019-03-18T17:08:25.063Z,2.53
2019-03-18T17:11:48.247Z,2.87
2019-03-18T17:15:12.459Z,3.00
2019-03-18T17:18:35.991Z,3.37
2019-03-18T17:21:59.219Z,2.43
2019-03-18T17:25:22.579Z,2.03
2019-03-18T17:28:45.890Z,2.90
2019-03-18T17:32:09.022Z,3.33
2019-03-18T17:35:32.391Z,2.17
2019-03-18T17:38:59.407Z,2.13
2019-03-18T17:42:22.570Z,3.47
2019-03-18T17:45:45.670Z,2.77
2019-03-18T17:49:09.084Z,3.27
2019-03-18T17:52:32.423Z,2.83
2019-03-18T17:55:55.610Z,3.20
2019-03-18T17:59:18.826Z,3.00
2019-03-18T18:02:42.080Z,3.33
2019-03-18T18:06:05.252Z,3.03
2019-03-18T18:09:28.385Z,3.30
2019-03-18T18:12:51.764Z,3.37
2019-03-18T18:16:14.996Z,2.17
2019-03-18T18:19:51.817Z,3.23
2019-03-18T18:23:15.258Z,2.80
2019-03-18T18:26:38.494Z,2.57
2019-03-18T18:30:01.950Z,2.07
2019-03-18T18:33:25.296Z,2.77
2019-03-18T18:36:48.622Z,2.33
2019-03-18T18:40:12.197Z,3.73
2019-03-18T18:43:35.382Z,3.30
2019-03-18T18:46:58.546Z,3.03
2019-03-18T18:50:21.744Z,3.37
2019-03-18T18:53:45.060Z,2.73
2019-03-18T18:57:08.219Z,2.57
2019-03-18T19:00:31.473Z,2.67
2019-03-18T19:03:54.941Z,2.67
2019-03-18T19:07:18.093Z,3.07
2019-03-18T19:10:41.541Z,3.40
2019-03-18T19:14:04.694Z,2.73
2019-03-18T19:17:27.929Z,2.63
2019-03-18T19:20:51.327Z,3.13
2019-03-18T19:24:14.451Z,3.43
2019-03-18T19:27:37.595Z,2.97
2019-03-18T19:31:00.963Z,3.30
2019-03-18T19:34:24.202Z,3.73
2019-03-18T19:37:47.992Z,3.70
2019-03-18T19:41:11.112Z,4.00
2019-03-18T19:44:34.462Z,2.80
2019-03-18T19:47:57.627Z,3.60
2019-03-18T19:51:21.098Z,4.27
2019-03-18T19:54:44.335Z,3.37
2019-03-18T19:58:07.641Z,3.67
2019-03-18T20:01:31.020Z,3.37
2019-03-18T20:04:54.654Z,3.73
2019-03-18T20:08:18.001Z,3.93
2019-03-18T20:11:43.638Z,3.77
2019-03-18T20:15:11.955Z,3.70
2019-03-18T20:18:38.141Z,3.90
2019-03-18T20:22:02.227Z,5.10
2019-03-18T20:25:26.259Z,4.00
2019-03-18T20:28:49.403Z,4.97
2019-03-18T20:32:13.651Z,3.70
2019-03-18T20:35:36.919Z,4.10
2019-03-18T20:39:00.863Z,4.43
2019-03-18T20:42:24.164Z,4.90
2019-03-18T20:45:47.411Z,3.97
2019-03-18T20:49:11.053Z,4.67
2019-03-18T20:52:34.685Z,4.30
2019-03-18T20:55:58.470Z,3.30
2019-03-18T20:59:22.026Z,4.07
2019-03-18T21:02:45.680Z,5.03
2019-03-18T21:06:09.093Z,4.83
2019-03-18T21:09:33.503Z,5.57
2019-03-18T21:12:57.852Z,4.30
2019-03-18T21:16:21.274Z,4.03
2019-03-18T21:19:44.765Z,4.27
2019-03-18T21:23:07.945Z,4.37
2019-03-18T21:26:31.110Z,4.73
2019-03-18T21:29:54.256Z,6.07
2019-03-18T21:33:17.643Z,6.93
2019-03-18T21:36:41.791Z,4.63
2019-03-18T21:40:06.086Z,5.60
2019-03-18T21:43:29.423Z,4.27
2019-03-18T21:46:52.934Z,4.93
2019-03-18T21:50:16.242Z,5.33
2019-03-18T21:53:39.400Z,6.20
2019-03-18T21:57:02.910Z,5.33
2019-03-18T22:00:26.330Z,5.43
2019-03-18T22:03:49.591Z,6.47
2019-03-18T22:07:12.738Z,6.17
2019-03-18T22:10:36.148Z,6.50
2019-03-18T22:13:59.363Z,6.20
2019-03-18T22:17:22.641Z,5.53
2019-03-18T22:20:45.783Z,7.20
2019-03-18T22:24:09.085Z,6.70
2019-03-18T22:27:32.300Z,6.20
2019-03-18T22:30:55.436Z,6.27
2019-03-18T22:34:18.544Z,6.73
2019-03-18T22:37:42.124Z,6.90
2019-03-18T22:41:05.523Z,6.37
2019-03-18T22:44:28.682Z,6.73
2019-03-18T22:47:52.227Z,5.97
2019-03-18T22:51:15.981Z,5.77
2019-03-18T22:54:39.100Z,6.00
2019-03-18T22:58:02.347Z,7.70
2019-03-18T23:01:26.504Z,6.37
2019-03-18T23:04:49.742Z,6.20
2019-03-18T23:08:12.992Z,5.20
2019-03-18T23:11:36.358Z,5.63
2019-03-18T23:14:59.678Z,4.83
2019-03-18T23:18:22.839Z,6.90
2019-03-18T23:21:46.086Z,6.87
2019-03-18T23:25:09.139Z,5.40
2019-03-18T23:28:32.421Z,6.37
2019-03-18T23:31:55.642Z,5.40
2019-03-18T23:35:18.916Z,6.67
2019-03-18T23:38:42.190Z,6.23
2019-03-18T23:42:05.924Z,5.77
2019-03-18T23:45:29.351Z,5.20
2019-03-18T23:48:52.434Z,5.90
2019-03-18T23:52:15.609Z,4.87
2019-03-18T23:55:38.877Z,5.53
2019-03-18T23:59:02.167Z,6.10
